sensor_id;sensor_type;location;lat;lon;timestamp;pressure;altitude;pressure_sealevel;temperature;humidity
14838;BME280;7510;59.296;18.106;2022-12-05T00:03:53;102805.09;;;12.36;40.86
14838;BME280;7510;59.296;18.106;2022-12-05T00:06:20;102776.19;;;12.22;40.94
14838;BME280;7510;59.296;18.106;2022-12-05T00:08:46;102816.59;;;12.17;41.69
14838;BME280;7510;59.296;18.106;2022-12-05T00:11:25;102820.59;;;12.42;41.25
14838;BME280;7510;59.296;18.106;2022-12-05T00:13:53;102827.41;;;10.89;44.34
14838;BME280;7510;59.296;18.106;2022-12-05T00:16:21;102806.91;;;12.08;42.00
14838;BME280;7510;59.296;18.106;2022-12-05T00:18:47;102786.25;;;11.86;41.47
14838;BME280;7510;59.296;18.106;2022-12-05T00:21:22;102821.63;;;11.49;42.72
14838;BME280;7510;59.296;18.106;2022-12-05T00:23:48;102823.13;;;11.37;43.27
14838;BME280;7510;59.296;18.106;2022-12-05T00:26:14;102818.91;;;11.99;41.81
14838;BME280;7510;59.296;18.106;2022-12-05T00:28:40;102820.59;;;12.00;41.03
14838;BME280;7510;59.296;18.106;2022-12-05T00:31:12;102805.84;;;12.78;40.24
14838;BME280;7510;59.296;18.106;2022-12-05T00:33:38;102812.94;;;12.73;40.46
14838;BME280;7510;59.296;18.106;2022-12-05T00:36:09;102804.53;;;12.68;40.42
14838;BME280;7510;59.296;18.106;2022-12-05T00:38:35;102804.06;;;12.16;41.05
14838;BME280;7510;59.296;18.106;2022-12-05T00:41:06;102806.63;;;11.82;41.36
14838;BME280;7510;59.296;18.106;2022-12-05T00:43:32;102780.41;;;10.38;44.08
14838;BME280;7510;59.296;18.106;2022-12-05T00:46:05;102804.97;;;10.66;44.70
14838;BME280;7510;59.296;18.106;2022-12-05T00:48:31;102803.00;;;9.93;45.95
14838;BME280;7510;59.296;18.106;2022-12-05T00:53:27;102796.22;;;11.50;42.33
14838;BME280;7510;59.296;18.106;2022-12-05T00:55:52;102780.16;;;11.63;41.98
14838;BME280;7510;59.296;18.106;2022-12-05T00:58:18;102790.13;;;10.62;43.79
14838;BME280;7510;59.296;18.106;2022-12-05T01:00:43;102785.66;;;10.54;44.20
14838;BME280;7510;59.296;18.106;2022-12-05T01:03:09;102787.66;;;10.75;43.96
14838;BME280;7510;59.296;18.106;2022-12-05T01:05:34;102799.00;;;9.58;47.13
14838;BME280;7510;59.296;18.106;2022-12-05T01:07:59;102796.47;;;9.27;47.78
14838;BME280;7510;59.296;18.106;2022-12-05T01:10:25;102779.53;;;10.60;44.31
14838;BME280;7510;59.296;18.106;2022-12-05T01:12:50;102796.81;;;10.15;45.31
14838;BME280;7510;59.296;18.106;2022-12-05T01:15:16;102798.38;;;10.68;44.60
14838;BME280;7510;59.296;18.106;2022-12-05T01:17:41;102791.75;;;11.43;43.03
14838;BME280;7510;59.296;18.106;2022-12-05T01:20:07;102794.63;;;11.70;42.24
14838;BME280;7510;59.296;18.106;2022-12-05T01:22:33;102798.69;;;11.02;43.86
14838;BME280;7510;59.296;18.106;2022-12-05T01:24:58;102789.22;;;11.56;42.88
14838;BME280;7510;59.296;18.106;2022-12-05T01:27:24;102791.69;;;10.79;43.87
14838;BME280;7510;59.296;18.106;2022-12-05T01:29:49;102800.72;;;10.86;43.73
14838;BME280;7510;59.296;18.106;2022-12-05T01:32:15;102777.50;;;10.77;44.08
14838;BME280;7510;59.296;18.106;2022-12-05T01:34:42;102803.53;;;11.21;42.82
14838;BME280;7510;59.296;18.106;2022-12-05T01:37:07;102802.72;;;9.88;45.64
14838;BME280;7510;59.296;18.106;2022-12-05T01:39:33;102802.97;;;9.02;47.87
14838;BME280;7510;59.296;18.106;2022-12-05T01:41:58;102794.19;;;9.76;46.45
14838;BME280;7510;59.296;18.106;2022-12-05T01:46:51;102782.13;;;10.68;44.46
14838;BME280;7510;59.296;18.106;2022-12-05T01:49:21;102788.16;;;8.90;48.56
14838;BME280;7510;59.296;18.106;2022-12-05T01:51:50;102793.72;;;8.96;48.51
14838;BME280;7510;59.296;18.106;2022-12-05T01:54:17;102780.66;;;10.29;45.28
14838;BME280;7510;59.296;18.106;2022-12-05T01:56:48;102781.09;;;11.41;43.33
14838;BME280;7510;59.296;18.106;2022-12-05T01:59:15;102781.19;;;9.80;46.03
14838;BME280;7510;59.296;18.106;2022-12-05T02:01:42;102778.34;;;10.26;45.40
14838;BME280;7510;59.296;18.106;2022-12-05T02:04:07;102773.00;;;10.84;44.25
14838;BME280;7510;59.296;18.106;2022-12-05T02:06:33;102776.03;;;11.67;42.73
14838;BME280;7510;59.296;18.106;2022-12-05T02:08:59;102754.75;;;11.64;41.82
14838;BME280;7510;59.296;18.106;2022-12-05T02:11:26;102778.38;;;10.40;45.05
14838;BME280;7510;59.296;18.106;2022-12-05T02:14:08;102776.19;;;11.02;44.11
14838;BME280;7510;59.296;18.106;2022-12-05T02:33:27;102768.13;;;12.56;40.40
14838;BME280;7510;59.296;18.106;2022-12-05T02:36:22;102767.03;;;12.02;41.32
14838;BME280;7510;59.296;18.106;2022-12-05T02:39:09;102761.53;;;11.25;42.79
14838;BME280;7510;59.296;18.106;2022-12-05T02:41:53;102763.41;;;12.37;40.72
14838;BME280;7510;59.296;18.106;2022-12-05T02:44:36;102765.00;;;12.31;40.76
14838;BME280;7510;59.296;18.106;2022-12-05T02:47:05;102756.31;;;12.91;39.99
14838;BME280;7510;59.296;18.106;2022-12-05T02:49:34;102755.72;;;12.68;39.87
14838;BME280;7510;59.296;18.106;2022-12-05T02:52:03;102751.03;;;12.07;41.14
14838;BME280;7510;59.296;18.106;2022-12-05T02:54:32;102745.81;;;12.33;40.63
14838;BME280;7510;59.296;18.106;2022-12-05T02:57:00;102745.09;;;11.97;41.24
14838;BME280;7510;59.296;18.106;2022-12-05T02:59:27;102719.19;;;11.88;41.16
14838;BME280;7510;59.296;18.106;2022-12-05T03:01:53;102733.63;;;11.95;41.54
14838;BME280;7510;59.296;18.106;2022-12-05T03:04:21;102739.88;;;11.39;42.12
14838;BME280;7510;59.296;18.106;2022-12-05T03:07:02;102744.44;;;11.95;41.41
14838;BME280;7510;59.296;18.106;2022-12-05T03:09:35;102728.00;;;11.26;42.51
14838;BME280;7510;59.296;18.106;2022-12-05T03:14:40;102737.34;;;11.73;41.72
14838;BME280;7510;59.296;18.106;2022-12-05T03:17:15;102728.03;;;11.61;41.92
14838;BME280;7510;59.296;18.106;2022-12-05T03:19:58;102717.44;;;10.81;43.62
14838;BME280;7510;59.296;18.106;2022-12-05T03:22:49;102696.03;;;11.01;43.22
14838;BME280;7510;59.296;18.106;2022-12-05T03:25:17;102715.03;;;11.92;41.74
14838;BME280;7510;59.296;18.106;2022-12-05T03:28:08;102720.97;;;12.02;41.25
14838;BME280;7510;59.296;18.106;2022-12-05T03:30:38;102714.66;;;12.43;40.86
14838;BME280;7510;59.296;18.106;2022-12-05T03:33:11;102706.13;;;12.19;41.12
14838;BME280;7510;59.296;18.106;2022-12-05T03:38:30;102707.47;;;12.91;40.07
14838;BME280;7510;59.296;18.106;2022-12-05T03:41:23;102702.47;;;12.06;41.01
14838;BME280;7510;59.296;18.106;2022-12-05T03:43:56;102702.06;;;12.36;40.94
14838;BME280;7510;59.296;18.106;2022-12-05T03:52:04;102699.13;;;11.47;43.00
14838;BME280;7510;59.296;18.106;2022-12-05T03:54:35;102674.41;;;12.19;41.11
14838;BME280;7510;59.296;18.106;2022-12-05T03:57:07;102692.06;;;12.09;41.55
14838;BME280;7510;59.296;18.106;2022-12-05T04:00:17;102681.88;;;12.72;40.16
14838;BME280;7510;59.296;18.106;2022-12-05T04:05:24;102673.66;;;12.25;41.19
14838;BME280;7510;59.296;18.106;2022-12-05T04:07:57;102674.34;;;12.40;41.04
14838;BME280;7510;59.296;18.106;2022-12-05T04:10:28;102659.66;;;12.56;40.41
14838;BME280;7510;59.296;18.106;2022-12-05T04:12:59;102663.56;;;12.81;40.34
14838;BME280;7510;59.296;18.106;2022-12-05T04:15:53;102665.94;;;12.63;40.89
14838;BME280;7510;59.296;18.106;2022-12-05T04:18:48;102660.28;;;12.58;40.68
14838;BME280;7510;59.296;18.106;2022-12-05T04:21:15;102641.47;;;12.50;40.53
14838;BME280;7510;59.296;18.106;2022-12-05T04:24:01;102640.03;;;11.51;42.74
14838;BME280;7510;59.296;18.106;2022-12-05T04:26:47;102613.06;;;12.12;41.52
14838;BME280;7510;59.296;18.106;2022-12-05T04:29:28;102659.00;;;12.20;41.49
14838;BME280;7510;59.296;18.106;2022-12-05T04:32:01;102649.34;;;11.63;42.44
14838;BME280;7510;59.296;18.106;2022-12-05T04:34:30;102655.31;;;12.34;41.46
14838;BME280;7510;59.296;18.106;2022-12-05T04:37:05;102662.38;;;12.28;41.49
14838;BME280;7510;59.296;18.106;2022-12-05T04:39:40;102667.03;;;11.09;44.19
14838;BME280;7510;59.296;18.106;2022-12-05T04:42:22;102662.31;;;12.22;42.42
14838;BME280;7510;59.296;18.106;2022-12-05T04:44:53;102622.59;;;12.76;40.74
14838;BME280;7510;59.296;18.106;2022-12-05T04:47:21;102653.13;;;12.84;40.86
14838;BME280;7510;59.296;18.106;2022-12-05T04:49:52;102655.59;;;12.73;40.99
14838;BME280;7510;59.296;18.106;2022-12-05T04:52:19;102647.72;;;12.84;40.44
14838;BME280;7510;59.296;18.106;2022-12-05T04:54:49;102638.34;;;12.53;41.17
14838;BME280;7510;59.296;18.106;2022-12-05T04:57:22;102635.25;;;12.90;40.63
14838;BME280;7510;59.296;18.106;2022-12-05T04:59:49;102636.66;;;12.45;41.10
14838;BME280;7510;59.296;18.106;2022-12-05T05:02:18;102646.38;;;13.07;40.28
14838;BME280;7510;59.296;18.106;2022-12-05T05:04:48;102640.22;;;12.86;40.73
14838;BME280;7510;59.296;18.106;2022-12-05T05:07:15;102650.41;;;11.89;42.61
14838;BME280;7510;59.296;18.106;2022-12-05T05:09:42;102631.81;;;12.81;41.01
14838;BME280;7510;59.296;18.106;2022-12-05T05:12:08;102636.94;;;13.03;40.68
14838;BME280;7510;59.296;18.106;2022-12-05T05:14:33;102638.72;;;12.84;40.77
14838;BME280;7510;59.296;18.106;2022-12-05T05:16:59;102608.19;;;12.69;40.78
14838;BME280;7510;59.296;18.106;2022-12-05T05:19:24;102633.72;;;12.81;40.88
14838;BME280;7510;59.296;18.106;2022-12-05T05:21:50;102615.41;;;12.49;41.13
14838;BME280;7510;59.296;18.106;2022-12-05T05:24:17;102637.75;;;12.91;40.67
14838;BME280;7510;59.296;18.106;2022-12-05T05:26:44;102629.25;;;12.67;41.08
14838;BME280;7510;59.296;18.106;2022-12-05T05:29:11;102625.03;;;12.92;40.61
14838;BME280;7510;59.296;18.106;2022-12-05T05:31:38;102577.06;;;12.65;40.77
14838;BME280;7510;59.296;18.106;2022-12-05T05:34:05;102620.84;;;12.96;40.56
14838;BME280;7510;59.296;18.106;2022-12-05T05:36:30;102613.41;;;13.17;40.05
14838;BME280;7510;59.296;18.106;2022-12-05T05:38:58;102621.88;;;12.95;40.42
14838;BME280;7510;59.296;18.106;2022-12-05T05:41:30;102624.84;;;12.25;41.84
14838;BME280;7510;59.296;18.106;2022-12-05T05:43:57;102620.34;;;13.32;40.09
14838;BME280;7510;59.296;18.106;2022-12-05T05:46:25;102606.97;;;13.37;39.71
14838;BME280;7510;59.296;18.106;2022-12-05T05:48:51;102597.13;;;13.10;40.15
14838;BME280;7510;59.296;18.106;2022-12-05T05:51:18;102587.94;;;13.11;39.86
14838;BME280;7510;59.296;18.106;2022-12-05T05:53:44;102587.81;;;12.39;41.48
14838;BME280;7510;59.296;18.106;2022-12-05T05:56:11;102578.06;;;12.98;40.20
14838;BME280;7510;59.296;18.106;2022-12-05T05:58:38;102596.22;;;12.91;40.64
14838;BME280;7510;59.296;18.106;2022-12-05T06:01:05;102597.25;;;12.90;40.49
14838;BME280;7510;59.296;18.106;2022-12-05T06:03:31;102606.06;;;13.11;40.10
14838;BME280;7510;59.296;18.106;2022-12-05T06:05:58;102597.56;;;13.40;39.71
14838;BME280;7510;59.296;18.106;2022-12-05T06:08:23;102589.00;;;13.30;40.21
14838;BME280;7510;59.296;18.106;2022-12-05T06:10:49;102580.25;;;13.47;39.55
14838;BME280;7510;59.296;18.106;2022-12-05T06:13:14;102577.50;;;13.34;39.50
14838;BME280;7510;59.296;18.106;2022-12-05T06:15:40;102569.34;;;13.34;39.50
14838;BME280;7510;59.296;18.106;2022-12-05T06:18:05;102540.09;;;13.10;39.86
14838;BME280;7510;59.296;18.106;2022-12-05T06:20:31;102574.59;;;12.70;41.03
14838;BME280;7510;59.296;18.106;2022-12-05T06:22:56;102578.34;;;12.69;40.97
14838;BME280;7510;59.296;18.106;2022-12-05T06:25:22;102556.56;;;12.90;40.21
14838;BME280;7510;59.296;18.106;2022-12-05T06:27:47;102577.66;;;12.13;41.64
14838;BME280;7510;59.296;18.106;2022-12-05T06:30:13;102568.94;;;13.18;40.20
14838;BME280;7510;59.296;18.106;2022-12-05T06:32:38;102579.38;;;12.21;41.94
14838;BME280;7510;59.296;18.106;2022-12-05T06:35:04;102586.66;;;12.61;41.05
14838;BME280;7510;59.296;18.106;2022-12-05T06:37:40;102582.31;;;12.66;41.16
14838;BME280;7510;59.296;18.106;2022-12-05T06:40:05;102569.00;;;12.31;42.10
14838;BME280;7510;59.296;18.106;2022-12-05T06:42:31;102546.66;;;12.76;40.95
14838;BME280;7510;59.296;18.106;2022-12-05T06:44:56;102565.19;;;12.66;40.98
14838;BME280;7510;59.296;18.106;2022-12-05T06:47:22;102553.59;;;12.38;41.65
14838;BME280;7510;59.296;18.106;2022-12-05T06:49:47;102577.13;;;11.97;42.79
14838;BME280;7510;59.296;18.106;2022-12-05T06:52:13;102559.50;;;12.54;41.26
14838;BME280;7510;59.296;18.106;2022-12-05T06:54:38;102570.28;;;12.41;41.62
14838;BME280;7510;59.296;18.106;2022-12-05T06:57:04;102567.06;;;11.91;42.81
14838;BME280;7510;59.296;18.106;2022-12-05T06:59:29;102564.91;;;13.01;40.85
14838;BME280;7510;59.296;18.106;2022-12-05T07:01:54;102573.09;;;13.07;40.53
14838;BME280;7510;59.296;18.106;2022-12-05T07:04:21;102573.34;;;13.38;39.83
14838;BME280;7510;59.296;18.106;2022-12-05T07:06:52;102546.41;;;13.69;39.46
14838;BME280;7510;59.296;18.106;2022-12-05T07:09:20;102549.94;;;13.89;38.85
14838;BME280;7510;59.296;18.106;2022-12-05T07:11:49;102576.00;;;12.19;42.22
14838;BME280;7510;59.296;18.106;2022-12-05T07:14:16;102561.88;;;12.77;41.15
14838;BME280;7510;59.296;18.106;2022-12-05T07:16:42;102565.06;;;12.87;40.90
14838;BME280;7510;59.296;18.106;2022-12-05T07:19:09;102560.53;;;13.06;40.73
14838;BME280;7510;59.296;18.106;2022-12-05T07:21:34;102560.16;;;13.29;40.19
14838;BME280;7510;59.296;18.106;2022-12-05T07:24:00;102555.28;;;12.39;41.93
14838;BME280;7510;59.296;18.106;2022-12-05T07:26:25;102547.28;;;12.24;42.51
14838;BME280;7510;59.296;18.106;2022-12-05T07:28:53;102557.84;;;12.53;42.07
14838;BME280;7510;59.296;18.106;2022-12-05T07:31:21;102559.78;;;13.51;40.08
14838;BME280;7510;59.296;18.106;2022-12-05T07:33:48;102554.78;;;13.74;39.15
14838;BME280;7510;59.296;18.106;2022-12-05T07:36:19;102545.94;;;13.98;39.14
14838;BME280;7510;59.296;18.106;2022-12-05T07:38:45;102530.72;;;13.71;39.42
14838;BME280;7510;59.296;18.106;2022-12-05T07:41:23;102552.66;;;13.89;39.15
14838;BME280;7510;59.296;18.106;2022-12-05T07:43:53;102548.50;;;13.67;39.77
14838;BME280;7510;59.296;18.106;2022-12-05T07:46:19;102553.50;;;13.77;39.71
14838;BME280;7510;59.296;18.106;2022-12-05T07:48:44;102540.50;;;14.04;39.20
14838;BME280;7510;59.296;18.106;2022-12-05T07:51:11;102530.81;;;14.41;38.83
14838;BME280;7510;59.296;18.106;2022-12-05T07:53:37;102524.66;;;13.63;39.68
14838;BME280;7510;59.296;18.106;2022-12-05T07:56:05;102524.41;;;14.03;38.89
14838;BME280;7510;59.296;18.106;2022-12-05T07:58:32;102525.25;;;14.67;38.04
14838;BME280;7510;59.296;18.106;2022-12-05T08:01:08;102526.28;;;14.02;38.97
14838;BME280;7510;59.296;18.106;2022-12-05T08:03:34;102523.09;;;12.76;40.83
14838;BME280;7510;59.296;18.106;2022-12-05T08:06:06;102523.38;;;13.00;41.12
14838;BME280;7510;59.296;18.106;2022-12-05T08:08:32;102497.84;;;14.11;39.08
14838;BME280;7510;59.296;18.106;2022-12-05T08:11:06;102516.97;;;14.49;38.43
14838;BME280;7510;59.296;18.106;2022-12-05T08:13:32;102515.47;;;13.70;39.67
14838;BME280;7510;59.296;18.106;2022-12-05T08:16:06;102513.38;;;13.07;40.87
14838;BME280;7510;59.296;18.106;2022-12-05T08:18:32;102503.16;;;13.74;39.44
14838;BME280;7510;59.296;18.106;2022-12-05T08:21:03;102509.78;;;14.61;38.25
14838;BME280;7510;59.296;18.106;2022-12-05T08:23:29;102520.03;;;14.15;38.52
14838;BME280;7510;59.296;18.106;2022-12-05T08:26:00;102535.56;;;12.24;42.62
14838;BME280;7510;59.296;18.106;2022-12-05T08:28:25;102528.22;;;12.52;42.17
14838;BME280;7510;59.296;18.106;2022-12-05T08:30:51;102526.34;;;13.44;40.43
14838;BME280;7510;59.296;18.106;2022-12-05T08:33:16;102518.78;;;13.85;39.57
14838;BME280;7510;59.296;18.106;2022-12-05T08:35:42;102518.56;;;14.12;38.82
14838;BME280;7510;59.296;18.106;2022-12-05T08:38:07;102484.91;;;13.94;38.90
14838;BME280;7510;59.296;18.106;2022-12-05T08:40:32;102514.84;;;13.81;39.51
14838;BME280;7510;59.296;18.106;2022-12-05T08:42:58;102513.16;;;14.56;38.39
14838;BME280;7510;59.296;18.106;2022-12-05T08:45:23;102505.69;;;14.39;38.25
14838;BME280;7510;59.296;18.106;2022-12-05T08:47:49;102516.53;;;13.69;39.56
14838;BME280;7510;59.296;18.106;2022-12-05T08:50:14;102514.16;;;14.11;39.27
14838;BME280;7510;59.296;18.106;2022-12-05T08:52:40;102510.28;;;14.45;38.67
14838;BME280;7510;59.296;18.106;2022-12-05T08:55:05;102501.94;;;14.40;38.48
14838;BME280;7510;59.296;18.106;2022-12-05T08:57:31;102506.38;;;14.72;38.21
14838;BME280;7510;59.296;18.106;2022-12-05T08:59:57;102473.06;;;15.07;37.38
14838;BME280;7510;59.296;18.106;2022-12-05T09:02:22;102507.81;;;15.11;37.20
14838;BME280;7510;59.296;18.106;2022-12-05T09:04:51;102504.53;;;14.09;39.00
14838;BME280;7510;59.296;18.106;2022-12-05T09:07:16;102510.47;;;13.35;40.92
14838;BME280;7510;59.296;18.106;2022-12-05T09:09:42;102505.81;;;14.13;39.03
14838;BME280;7510;59.296;18.106;2022-12-05T09:12:08;102499.53;;;14.12;39.15
14838;BME280;7510;59.296;18.106;2022-12-05T09:14:33;102502.94;;;14.89;37.67
14838;BME280;7510;59.296;18.106;2022-12-05T09:16:59;102492.00;;;14.65;38.29
14838;BME280;7510;59.296;18.106;2022-12-05T09:19:25;102464.50;;;14.73;38.04
14838;BME280;7510;59.296;18.106;2022-12-05T09:21:52;102487.59;;;14.64;38.29
14838;BME280;7510;59.296;18.106;2022-12-05T09:24:17;102488.75;;;14.80;38.26
14838;BME280;7510;59.296;18.106;2022-12-05T09:26:43;102479.72;;;14.86;38.07
14838;BME280;7510;59.296;18.106;2022-12-05T09:29:10;102485.06;;;14.99;37.78
14838;BME280;7510;59.296;18.106;2022-12-05T09:31:37;102475.78;;;14.76;38.38
14838;BME280;7510;59.296;18.106;2022-12-05T09:34:03;102469.09;;;14.72;37.76
14838;BME280;7510;59.296;18.106;2022-12-05T09:36:30;102478.19;;;14.60;38.56
14838;BME280;7510;59.296;18.106;2022-12-05T09:39:00;102471.06;;;14.96;37.73
14838;BME280;7510;59.296;18.106;2022-12-05T09:47:37;102457.13;;;15.10;37.17
14838;BME280;7510;59.296;18.106;2022-12-05T09:55:54;102455.84;;;15.13;37.91
14838;BME280;7510;59.296;18.106;2022-12-05T09:59:07;102461.72;;;14.48;38.44
14838;BME280;7510;59.296;18.106;2022-12-05T10:07:10;102445.19;;;15.11;37.73
14838;BME280;7510;59.296;18.106;2022-12-05T10:17:55;102436.25;;;15.04;37.84
14838;BME280;7510;59.296;18.106;2022-12-05T10:26:12;102426.81;;;14.76;38.04
14838;BME280;7510;59.296;18.106;2022-12-05T10:29:06;102419.84;;;14.86;37.51
14838;BME280;7510;59.296;18.106;2022-12-05T10:31:35;102422.19;;;14.76;37.79
14838;BME280;7510;59.296;18.106;2022-12-05T10:34:14;102424.19;;;14.87;37.55
14838;BME280;7510;59.296;18.106;2022-12-05T10:36:57;102413.66;;;14.97;37.13
14838;BME280;7510;59.296;18.106;2022-12-05T10:39:26;102402.31;;;15.00;37.36
14838;BME280;7510;59.296;18.106;2022-12-05T10:41:51;102408.31;;;14.84;37.42
14838;BME280;7510;59.296;18.106;2022-12-05T10:44:17;102389.94;;;14.80;37.56
14838;BME280;7510;59.296;18.106;2022-12-05T10:46:43;102400.34;;;14.21;38.50
14838;BME280;7510;59.296;18.106;2022-12-05T10:49:11;102397.44;;;14.54;38.38
14838;BME280;7510;59.296;18.106;2022-12-05T10:51:37;102395.78;;;14.09;38.38
14838;BME280;7510;59.296;18.106;2022-12-05T10:54:36;102395.34;;;14.18;38.58
14838;BME280;7510;59.296;18.106;2022-12-05T10:57:26;102398.94;;;15.05;37.29
14838;BME280;7510;59.296;18.106;2022-12-05T10:59:52;102380.53;;;15.00;37.14
14838;BME280;7510;59.296;18.106;2022-12-05T11:02:29;102385.41;;;14.68;37.61
14838;BME280;7510;59.296;18.106;2022-12-05T11:04:56;102356.69;;;15.20;37.01
14838;BME280;7510;59.296;18.106;2022-12-05T11:10:24;102355.00;;;15.19;37.39
14838;BME280;7510;59.296;18.106;2022-12-05T11:12:50;102357.22;;;14.86;37.93
14838;BME280;7510;59.296;18.106;2022-12-05T11:17:44;102331.09;;;13.80;39.56
14838;BME280;7510;59.296;18.106;2022-12-05T11:22:49;102324.88;;;13.67;40.04
14838;BME280;7510;59.296;18.106;2022-12-05T11:33:27;102320.88;;;12.99;41.72
14838;BME280;7510;59.296;18.106;2022-12-05T11:35:56;102325.22;;;13.89;39.75
14838;BME280;7510;59.296;18.106;2022-12-05T11:38:27;102313.06;;;14.84;38.26
14838;BME280;7510;59.296;18.106;2022-12-05T12:08:27;102232.69;;;14.02;38.54
14838;BME280;7510;59.296;18.106;2022-12-05T12:11:19;102254.59;;;15.29;37.30
14838;BME280;7510;59.296;18.106;2022-12-05T12:22:53;102256.53;;;15.04;37.74
14838;BME280;7510;59.296;18.106;2022-12-05T12:30:21;102232.22;;;14.85;37.79
14838;BME280;7510;59.296;18.106;2022-12-05T12:35:27;102223.41;;;15.43;37.26
14838;BME280;7510;59.296;18.106;2022-12-05T12:40:54;102229.00;;;14.94;37.52
14838;BME280;7510;59.296;18.106;2022-12-05T12:52:23;102208.38;;;14.63;38.10
14838;BME280;7510;59.296;18.106;2022-12-05T13:00:30;102184.66;;;15.23;37.57
14838;BME280;7510;59.296;18.106;2022-12-05T13:03:07;102180.09;;;13.22;40.41
14838;BME280;7510;59.296;18.106;2022-12-05T13:08:27;102167.72;;;12.70;41.66
14838;BME280;7510;59.296;18.106;2022-12-05T13:10:58;102158.78;;;13.26;40.24
14838;BME280;7510;59.296;18.106;2022-12-05T13:13:33;102168.75;;;13.32;39.92
14838;BME280;7510;59.296;18.106;2022-12-05T13:16:03;102148.88;;;12.88;40.97
14838;BME280;7510;59.296;18.106;2022-12-05T13:18:31;102160.16;;;12.78;40.95
14838;BME280;7510;59.296;18.106;2022-12-05T13:20:59;102161.09;;;13.22;40.57
14838;BME280;7510;59.296;18.106;2022-12-05T13:23:28;102149.88;;;14.54;38.38
14838;BME280;7510;59.296;18.106;2022-12-05T13:25:57;102130.53;;;14.62;37.87
14838;BME280;7510;59.296;18.106;2022-12-05T13:28:31;102137.28;;;13.86;39.45
14838;BME280;7510;59.296;18.106;2022-12-05T13:30:58;102130.91;;;13.74;39.50
14838;BME280;7510;59.296;18.106;2022-12-05T13:33:50;102117.97;;;14.61;37.98
14838;BME280;7510;59.296;18.106;2022-12-05T13:36:18;102119.78;;;14.49;37.94
14838;BME280;7510;59.296;18.106;2022-12-05T13:39:18;102119.78;;;14.31;38.06
14838;BME280;7510;59.296;18.106;2022-12-05T13:42:03;102114.22;;;14.62;37.99
14838;BME280;7510;59.296;18.106;2022-12-05T13:47:06;102110.03;;;13.68;39.93
14838;BME280;7510;59.296;18.106;2022-12-05T13:49:46;102115.63;;;13.49;40.20
14838;BME280;7510;59.296;18.106;2022-12-05T13:52:16;102118.63;;;13.34;40.84
14838;BME280;7510;59.296;18.106;2022-12-05T13:54:50;102085.97;;;14.20;39.04
14838;BME280;7510;59.296;18.106;2022-12-05T14:00:19;102100.03;;;13.00;40.86
14838;BME280;7510;59.296;18.106;2022-12-05T14:02:53;102096.81;;;13.16;41.08
14838;BME280;7510;59.296;18.106;2022-12-05T14:07:53;102091.44;;;12.47;41.71
14838;BME280;7510;59.296;18.106;2022-12-05T14:12:59;102049.41;;;13.74;39.35
14838;BME280;7510;59.296;18.106;2022-12-05T14:15:33;102073.84;;;14.41;38.56
14838;BME280;7510;59.296;18.106;2022-12-05T14:21:46;102063.88;;;14.71;37.80
14838;BME280;7510;59.296;18.106;2022-12-05T14:32:09;102052.25;;;14.46;38.24
14838;BME280;7510;59.296;18.106;2022-12-05T14:34:48;102048.84;;;13.90;39.27
14838;BME280;7510;59.296;18.106;2022-12-05T14:39:48;102042.13;;;14.35;38.33
14838;BME280;7510;59.296;18.106;2022-12-05T14:42:22;102038.75;;;14.86;37.78
14838;BME280;7510;59.296;18.106;2022-12-05T14:44:51;102019.16;;;14.31;38.55
14838;BME280;7510;59.296;18.106;2022-12-05T14:47:25;102044.84;;;14.53;38.00
14838;BME280;7510;59.296;18.106;2022-12-05T14:52:42;102030.66;;;14.08;38.39
14838;BME280;7510;59.296;18.106;2022-12-05T14:55:15;102028.81;;;14.27;38.42
14838;BME280;7510;59.296;18.106;2022-12-05T14:57:47;102027.19;;;14.91;37.57
14838;BME280;7510;59.296;18.106;2022-12-05T15:00:20;101964.25;;;14.70;37.27
14838;BME280;7510;59.296;18.106;2022-12-05T15:02:48;101989.63;;;15.11;37.03
14838;BME280;7510;59.296;18.106;2022-12-05T15:07:46;102014.06;;;14.99;37.34
14838;BME280;7510;59.296;18.106;2022-12-05T15:13:17;102017.09;;;15.21;36.56
14838;BME280;7510;59.296;18.106;2022-12-05T15:16:33;102011.09;;;15.30;36.46
14838;BME280;7510;59.296;18.106;2022-12-05T15:18:38;102011.75;;;15.14;36.75
14838;BME280;7510;59.296;18.106;2022-12-05T15:21:22;102002.97;;;15.12;36.85
14838;BME280;7510;59.296;18.106;2022-12-05T15:23:59;102004.50;;;15.08;36.69
14838;BME280;7510;59.296;18.106;2022-12-05T15:26:39;101998.25;;;13.89;38.66
14838;BME280;7510;59.296;18.106;2022-12-05T15:32:05;101993.94;;;15.00;37.10
14838;BME280;7510;59.296;18.106;2022-12-05T15:34:45;101985.88;;;14.94;37.30
14838;BME280;7510;59.296;18.106;2022-12-05T15:42:44;101964.69;;;14.37;38.09
14838;BME280;7510;59.296;18.106;2022-12-05T15:45:16;101969.13;;;14.50;37.84
14838;BME280;7510;59.296;18.106;2022-12-05T15:47:47;101957.38;;;14.20;38.57
14838;BME280;7510;59.296;18.106;2022-12-05T15:50:14;101958.88;;;14.63;38.04
14838;BME280;7510;59.296;18.106;2022-12-05T15:52:45;101934.69;;;14.44;37.89
14838;BME280;7510;59.296;18.106;2022-12-05T16:01:00;101931.41;;;15.35;36.38
14838;BME280;7510;59.296;18.106;2022-12-05T16:03:36;101913.38;;;15.22;36.63
14838;BME280;7510;59.296;18.106;2022-12-05T16:06:16;101925.69;;;14.73;37.41
14838;BME280;7510;59.296;18.106;2022-12-05T16:08:44;101918.59;;;14.72;37.63
14838;BME280;7510;59.296;18.106;2022-12-05T16:11:11;101913.56;;;15.27;36.65
14838;BME280;7510;59.296;18.106;2022-12-05T16:13:47;101916.50;;;15.37;36.49
14838;BME280;7510;59.296;18.106;2022-12-05T16:16:16;101920.34;;;15.18;36.62
14838;BME280;7510;59.296;18.106;2022-12-05T16:18:58;101913.22;;;14.94;37.26
14838;BME280;7510;59.296;18.106;2022-12-05T16:21:36;101914.84;;;15.59;36.25
14838;BME280;7510;59.296;18.106;2022-12-05T16:24:26;101917.00;;;14.93;37.45